sensor_id;sensor_type;location;lat;lon;timestamp;temperature;humidity
31735;DHT22;18313;48.518;9.124;2023-01-13T00:00:16;10.30;99.90
31735;DHT22;18313;48.518;9.124;2023-01-13T00:02:44;10.20;99.90
31735;DHT22;18313;48.518;9.124;2023-01-13T00:05:11;10.20;99.90
31735;DHT22;18313;48.518;9.124;2023-01-13T00:07:39;10.20;99.90
31735;DHT22;18313;48.518;9.124;2023-01-13T00:10:08;10.30;99.90
31735;DHT22;18313;48.518;9.124;2023-01-13T00:12:40;10.20;99.90
31735;DHT22;18313;48.518;9.124;2023-01-13T00:15:08;10.30;99.90
31735;DHT22;18313;48.518;9.124;2023-01-13T00:17:35;10.30;99.90
31735;DHT22;18313;48.518;9.124;2023-01-13T00:20:03;10.30;99.90
31735;DHT22;18313;48.518;9.124;2023-01-13T00:22:34;10.30;99.90
31735;DHT22;18313;48.518;9.124;2023-01-13T00:25:02;10.30;99.90
31735;DHT22;18313;48.518;9.124;2023-01-13T00:27:30;10.30;99.90
31735;DHT22;18313;48.518;9.124;2023-01-13T00:29:58;10.30;99.90
31735;DHT22;18313;48.518;9.124;2023-01-13T00:32:26;10.40;99.90
31735;DHT22;18313;48.518;9.124;2023-01-13T00:34:54;10.40;99.90
31735;DHT22;18313;48.518;9.124;2023-01-13T00:37:21;10.40;99.90
31735;DHT22;18313;48.518;9.124;2023-01-13T00:39:52;10.30;99.90
31735;DHT22;18313;48.518;9.124;2023-01-13T00:42:19;10.30;99.90
31735;DHT22;18313;48.518;9.124;2023-01-13T00:45:05;10.40;99.90
31735;DHT22;18313;48.518;9.124;2023-01-13T00:47:32;10.40;99.90
31735;DHT22;18313;48.518;9.124;2023-01-13T00:49:59;10.40;99.90
31735;DHT22;18313;48.518;9.124;2023-01-13T00:52:27;10.40;99.90
31735;DHT22;18313;48.518;9.124;2023-01-13T00:54:54;10.40;99.90
31735;DHT22;18313;48.518;9.124;2023-01-13T00:57:21;10.40;99.90
31735;DHT22;18313;48.518;9.124;2023-01-13T00:59:48;10.40;99.90
31735;DHT22;18313;48.518;9.124;2023-01-13T01:02:15;10.40;99.90
31735;DHT22;18313;48.518;9.124;2023-01-13T01:04:43;10.50;99.90
31735;DHT22;18313;48.518;9.124;2023-01-13T01:07:11;10.40;99.90
31735;DHT22;18313;48.518;9.124;2023-01-13T01:09:38;10.30;99.90
31735;DHT22;18313;48.518;9.124;2023-01-13T01:12:05;10.40;99.90
31735;DHT22;18313;48.518;9.124;2023-01-13T01:14:32;10.40;99.90
31735;DHT22;18313;48.518;9.124;2023-01-13T01:16:59;10.50;99.90
31735;DHT22;18313;48.518;9.124;2023-01-13T01:19:26;10.40;99.90
31735;DHT22;18313;48.518;9.124;2023-01-13T01:21:53;10.40;99.90
31735;DHT22;18313;48.518;9.124;2023-01-13T01:24:21;10.50;99.90
31735;DHT22;18313;48.518;9.124;2023-01-13T01:26:48;10.50;99.90
31735;DHT22;18313;48.518;9.124;2023-01-13T01:29:15;10.50;99.90
31735;DHT22;18313;48.518;9.124;2023-01-13T01:31:42;10.50;99.90
31735;DHT22;18313;48.518;9.124;2023-01-13T01:34:09;10.50;99.90
31735;DHT22;18313;48.518;9.124;2023-01-13T01:36:38;10.40;99.90
31735;DHT22;18313;48.518;9.124;2023-01-13T01:39:05;10.50;99.90
31735;DHT22;18313;48.518;9.124;2023-01-13T01:41:34;10.40;99.90
31735;DHT22;18313;48.518;9.124;2023-01-13T01:44:06;10.50;99.90
31735;DHT22;18313;48.518;9.124;2023-01-13T01:46:38;10.40;99.90
31735;DHT22;18313;48.518;9.124;2023-01-13T01:49:25;10.30;99.90
31735;DHT22;18313;48.518;9.124;2023-01-13T01:51:59;10.30;99.90
31735;DHT22;18313;48.518;9.124;2023-01-13T01:57:11;10.40;99.90
31735;DHT22;18313;48.518;9.124;2023-01-13T01:59:40;10.40;99.90
31735;DHT22;18313;48.518;9.124;2023-01-13T02:02:08;10.40;99.90
31735;DHT22;18313;48.518;9.124;2023-01-13T02:04:39;10.40;99.90
31735;DHT22;18313;48.518;9.124;2023-01-13T02:07:06;10.30;99.90
31735;DHT22;18313;48.518;9.124;2023-01-13T02:09:34;10.40;99.90
31735;DHT22;18313;48.518;9.124;2023-01-13T02:12:02;10.40;99.90
31735;DHT22;18313;48.518;9.124;2023-01-13T02:14:48;10.40;99.90
31735;DHT22;18313;48.518;9.124;2023-01-13T02:20:34;10.40;99.90
31735;DHT22;18313;48.518;9.124;2023-01-13T02:29:47;10.20;99.90
31735;DHT22;18313;48.518;9.124;2023-01-13T02:32:58;10.20;99.90
31735;DHT22;18313;48.518;9.124;2023-01-13T02:35:42;10.10;99.90
31735;DHT22;18313;48.518;9.124;2023-01-13T02:38:12;10.10;99.90
31735;DHT22;18313;48.518;9.124;2023-01-13T02:40:48;9.90;99.90
31735;DHT22;18313;48.518;9.124;2023-01-13T02:43:29;10.00;99.90
31735;DHT22;18313;48.518;9.124;2023-01-13T02:46:38;10.10;99.90
31735;DHT22;18313;48.518;9.124;2023-01-13T02:49:12;10.10;99.90
31735;DHT22;18313;48.518;9.124;2023-01-13T02:51:42;10.10;99.90
31735;DHT22;18313;48.518;9.124;2023-01-13T02:54:19;10.20;99.90
31735;DHT22;18313;48.518;9.124;2023-01-13T02:56:48;10.30;99.90
31735;DHT22;18313;48.518;9.124;2023-01-13T02:59:18;10.20;99.90
31735;DHT22;18313;48.518;9.124;2023-01-13T03:01:46;10.40;99.90
31735;DHT22;18313;48.518;9.124;2023-01-13T03:04:48;10.20;99.90
31735;DHT22;18313;48.518;9.124;2023-01-13T03:23:56;10.40;99.90
31735;DHT22;18313;48.518;9.124;2023-01-13T03:31:34;10.30;99.90
31735;DHT22;18313;48.518;9.124;2023-01-13T03:34:13;10.30;99.90
31735;DHT22;18313;48.518;9.124;2023-01-13T03:36:43;10.30;99.90
31735;DHT22;18313;48.518;9.124;2023-01-13T03:39:16;10.30;99.90
31735;DHT22;18313;48.518;9.124;2023-01-13T03:41:53;10.30;99.90
31735;DHT22;18313;48.518;9.124;2023-01-13T03:44:32;10.40;99.90
31735;DHT22;18313;48.518;9.124;2023-01-13T03:47:21;10.30;99.90
31735;DHT22;18313;48.518;9.124;2023-01-13T03:52:35;10.30;99.90
31735;DHT22;18313;48.518;9.124;2023-01-13T03:55:17;10.30;99.90
31735;DHT22;18313;48.518;9.124;2023-01-13T04:00:18;10.30;99.90
31735;DHT22;18313;48.518;9.124;2023-01-13T04:02:57;10.30;99.90
31735;DHT22;18313;48.518;9.124;2023-01-13T04:05:29;10.30;99.90
31735;DHT22;18313;48.518;9.124;2023-01-13T04:08:01;10.30;99.90
31735;DHT22;18313;48.518;9.124;2023-01-13T04:10:34;10.30;99.90
31735;DHT22;18313;48.518;9.124;2023-01-13T04:13:09;10.30;99.90
31735;DHT22;18313;48.518;9.124;2023-01-13T04:15:41;10.30;99.90
31735;DHT22;18313;48.518;9.124;2023-01-13T04:18:25;10.30;99.90
31735;DHT22;18313;48.518;9.124;2023-01-13T04:20:56;10.30;99.90
31735;DHT22;18313;48.518;9.124;2023-01-13T04:23:23;10.30;99.90
31735;DHT22;18313;48.518;9.124;2023-01-13T04:25:51;10.40;99.90
31735;DHT22;18313;48.518;9.124;2023-01-13T04:28:18;10.30;99.90
31735;DHT22;18313;48.518;9.124;2023-01-13T04:30:46;10.40;99.90
31735;DHT22;18313;48.518;9.124;2023-01-13T04:33:16;10.40;99.90
31735;DHT22;18313;48.518;9.124;2023-01-13T04:35:44;10.30;99.90
31735;DHT22;18313;48.518;9.124;2023-01-13T04:38:16;10.30;99.90
31735;DHT22;18313;48.518;9.124;2023-01-13T04:40:44;10.30;99.90
31735;DHT22;18313;48.518;9.124;2023-01-13T04:43:11;10.40;99.90
31735;DHT22;18313;48.518;9.124;2023-01-13T04:45:38;10.30;99.90
31735;DHT22;18313;48.518;9.124;2023-01-13T04:48:06;10.30;99.90
31735;DHT22;18313;48.518;9.124;2023-01-13T04:50:33;10.30;99.90
31735;DHT22;18313;48.518;9.124;2023-01-13T04:53:00;10.20;99.90
31735;DHT22;18313;48.518;9.124;2023-01-13T04:55:27;10.20;99.90
31735;DHT22;18313;48.518;9.124;2023-01-13T04:57:54;10.20;99.90
31735;DHT22;18313;48.518;9.124;2023-01-13T05:00:22;10.20;99.90
31735;DHT22;18313;48.518;9.124;2023-01-13T05:02:50;10.20;99.90
31735;DHT22;18313;48.518;9.124;2023-01-13T05:05:17;10.20;99.90
31735;DHT22;18313;48.518;9.124;2023-01-13T05:07:45;10.10;99.90
31735;DHT22;18313;48.518;9.124;2023-01-13T05:10:12;10.10;99.90
31735;DHT22;18313;48.518;9.124;2023-01-13T05:12:39;10.10;99.90
31735;DHT22;18313;48.518;9.124;2023-01-13T05:15:25;10.10;99.90
31735;DHT22;18313;48.518;9.124;2023-01-13T05:18:11;10.10;99.90
31735;DHT22;18313;48.518;9.124;2023-01-13T05:20:38;10.10;99.90
31735;DHT22;18313;48.518;9.124;2023-01-13T05:23:06;10.10;99.90
31735;DHT22;18313;48.518;9.124;2023-01-13T05:25:51;10.10;99.90
31735;DHT22;18313;48.518;9.124;2023-01-13T05:28:18;10.00;99.90
31735;DHT22;18313;48.518;9.124;2023-01-13T05:30:46;10.00;99.90
31735;DHT22;18313;48.518;9.124;2023-01-13T05:33:17;10.00;99.90
31735;DHT22;18313;48.518;9.124;2023-01-13T05:35:45;10.00;99.90
31735;DHT22;18313;48.518;9.124;2023-01-13T05:38:13;10.10;99.90
31735;DHT22;18313;48.518;9.124;2023-01-13T05:40:40;10.00;99.90
31735;DHT22;18313;48.518;9.124;2023-01-13T05:43:26;10.00;99.90
31735;DHT22;18313;48.518;9.124;2023-01-13T05:48:47;9.90;99.90
31735;DHT22;18313;48.518;9.124;2023-01-13T05:51:14;9.90;99.90
31735;DHT22;18313;48.518;9.124;2023-01-13T05:53:41;9.90;99.90
31735;DHT22;18313;48.518;9.124;2023-01-13T05:56:09;9.90;99.90
31735;DHT22;18313;48.518;9.124;2023-01-13T05:58:36;9.90;99.90
31735;DHT22;18313;48.518;9.124;2023-01-13T06:01:06;9.90;99.90
31735;DHT22;18313;48.518;9.124;2023-01-13T06:03:33;9.90;99.90
31735;DHT22;18313;48.518;9.124;2023-01-13T06:06:01;9.90;99.90
31735;DHT22;18313;48.518;9.124;2023-01-13T06:08:30;9.80;99.90
31735;DHT22;18313;48.518;9.124;2023-01-13T06:10:57;9.80;99.90
31735;DHT22;18313;48.518;9.124;2023-01-13T06:13:25;9.80;99.90
31735;DHT22;18313;48.518;9.124;2023-01-13T06:15:58;9.80;99.90
31735;DHT22;18313;48.518;9.124;2023-01-13T06:18:26;9.80;99.90
31735;DHT22;18313;48.518;9.124;2023-01-13T06:20:54;9.80;99.90
31735;DHT22;18313;48.518;9.124;2023-01-13T06:23:21;9.90;99.90
31735;DHT22;18313;48.518;9.124;2023-01-13T06:26:13;9.80;99.90
31735;DHT22;18313;48.518;9.124;2023-01-13T06:28:41;9.90;99.90
31735;DHT22;18313;48.518;9.124;2023-01-13T06:31:09;9.90;99.90
31735;DHT22;18313;48.518;9.124;2023-01-13T06:33:44;9.80;99.90
31735;DHT22;18313;48.518;9.124;2023-01-13T06:36:17;9.80;99.90
31735;DHT22;18313;48.518;9.124;2023-01-13T06:38:51;9.80;99.90
31735;DHT22;18313;48.518;9.124;2023-01-13T06:41:19;9.90;99.90
31735;DHT22;18313;48.518;9.124;2023-01-13T06:44:07;9.80;99.90
31735;DHT22;18313;48.518;9.124;2023-01-13T06:46:34;9.80;99.90
31735;DHT22;18313;48.518;9.124;2023-01-13T06:49:02;9.80;99.90
31735;DHT22;18313;48.518;9.124;2023-01-13T06:51:29;9.80;99.90
31735;DHT22;18313;48.518;9.124;2023-01-13T06:53:56;9.80;99.90
31735;DHT22;18313;48.518;9.124;2023-01-13T06:56:23;9.80;99.90
31735;DHT22;18313;48.518;9.124;2023-01-13T06:58:50;9.80;99.90
31735;DHT22;18313;48.518;9.124;2023-01-13T07:01:17;9.80;99.90
31735;DHT22;18313;48.518;9.124;2023-01-13T07:03:45;9.90;99.90
31735;DHT22;18313;48.518;9.124;2023-01-13T07:06:12;9.90;99.90
31735;DHT22;18313;48.518;9.124;2023-01-13T07:08:39;9.80;99.90
31735;DHT22;18313;48.518;9.124;2023-01-13T07:11:06;9.90;99.90
31735;DHT22;18313;48.518;9.124;2023-01-13T07:13:36;9.80;99.90
31735;DHT22;18313;48.518;9.124;2023-01-13T07:16:21;9.90;99.90
31735;DHT22;18313;48.518;9.124;2023-01-13T07:18:50;9.90;99.90
31735;DHT22;18313;48.518;9.124;2023-01-13T07:21:17;9.90;99.90
31735;DHT22;18313;48.518;9.124;2023-01-13T07:23:46;9.90;99.90
31735;DHT22;18313;48.518;9.124;2023-01-13T07:26:14;9.90;99.90
31735;DHT22;18313;48.518;9.124;2023-01-13T07:28:42;9.90;99.90
31735;DHT22;18313;48.518;9.124;2023-01-13T07:31:14;9.90;99.90
31735;DHT22;18313;48.518;9.124;2023-01-13T07:33:42;9.90;99.90
31735;DHT22;18313;48.518;9.124;2023-01-13T07:36:09;10.00;99.90
31735;DHT22;18313;48.518;9.124;2023-01-13T07:38:37;9.90;99.90
31735;DHT22;18313;48.518;9.124;2023-01-13T07:41:06;10.00;99.90
31735;DHT22;18313;48.518;9.124;2023-01-13T07:43:51;10.00;99.90
31735;DHT22;18313;48.518;9.124;2023-01-13T07:46:18;9.90;99.90
31735;DHT22;18313;48.518;9.124;2023-01-13T07:48:46;10.00;99.90
31735;DHT22;18313;48.518;9.124;2023-01-13T07:51:14;9.90;99.90
31735;DHT22;18313;48.518;9.124;2023-01-13T07:53:42;10.00;99.90
31735;DHT22;18313;48.518;9.124;2023-01-13T07:56:09;10.00;99.90
31735;DHT22;18313;48.518;9.124;2023-01-13T07:58:36;10.00;99.90
31735;DHT22;18313;48.518;9.124;2023-01-13T08:01:11;10.10;99.90
31735;DHT22;18313;48.518;9.124;2023-01-13T08:03:40;10.10;99.90
31735;DHT22;18313;48.518;9.124;2023-01-13T08:06:08;10.10;99.90
31735;DHT22;18313;48.518;9.124;2023-01-13T08:08:35;10.20;99.90
31735;DHT22;18313;48.518;9.124;2023-01-13T08:11:05;10.20;99.90
31735;DHT22;18313;48.518;9.124;2023-01-13T08:13:32;10.20;99.90
31735;DHT22;18313;48.518;9.124;2023-01-13T08:16:02;10.20;99.90
31735;DHT22;18313;48.518;9.124;2023-01-13T08:18:30;10.20;99.90
31735;DHT22;18313;48.518;9.124;2023-01-13T08:21:02;10.30;99.90
31735;DHT22;18313;48.518;9.124;2023-01-13T08:23:29;10.30;99.90
31735;DHT22;18313;48.518;9.124;2023-01-13T08:26:05;10.30;99.90
31735;DHT22;18313;48.518;9.124;2023-01-13T08:28:32;10.40;99.90
31735;DHT22;18313;48.518;9.124;2023-01-13T08:31:01;10.40;99.90
31735;DHT22;18313;48.518;9.124;2023-01-13T08:33:29;10.50;99.90
31735;DHT22;18313;48.518;9.124;2023-01-13T08:35:56;10.40;99.90
31735;DHT22;18313;48.518;9.124;2023-01-13T08:38:24;10.20;99.90
31735;DHT22;18313;48.518;9.124;2023-01-13T08:40:51;10.20;99.90
31735;DHT22;18313;48.518;9.124;2023-01-13T08:43:18;10.10;99.90
31735;DHT22;18313;48.518;9.124;2023-01-13T08:45:53;10.00;99.90
31735;DHT22;18313;48.518;9.124;2023-01-13T08:48:21;10.10;99.90
31735;DHT22;18313;48.518;9.124;2023-01-13T08:50:48;10.10;99.90
31735;DHT22;18313;48.518;9.124;2023-01-13T08:53:15;10.10;99.90
31735;DHT22;18313;48.518;9.124;2023-01-13T08:55:42;10.10;99.90
31735;DHT22;18313;48.518;9.124;2023-01-13T08:58:09;9.90;99.90
31735;DHT22;18313;48.518;9.124;2023-01-13T09:00:42;9.90;99.90
31735;DHT22;18313;48.518;9.124;2023-01-13T09:03:09;9.90;99.90
31735;DHT22;18313;48.518;9.124;2023-01-13T09:05:37;9.90;99.90
31735;DHT22;18313;48.518;9.124;2023-01-13T09:08:04;9.90;99.90
31735;DHT22;18313;48.518;9.124;2023-01-13T09:10:31;9.90;99.90
31735;DHT22;18313;48.518;9.124;2023-01-13T09:12:59;9.90;99.90
31735;DHT22;18313;48.518;9.124;2023-01-13T09:15:40;9.80;99.90
31735;DHT22;18313;48.518;9.124;2023-01-13T09:18:08;9.80;99.90
31735;DHT22;18313;48.518;9.124;2023-01-13T09:20:36;9.80;99.90
31735;DHT22;18313;48.518;9.124;2023-01-13T09:23:04;9.80;99.90
31735;DHT22;18313;48.518;9.124;2023-01-13T09:25:35;9.90;99.90
31735;DHT22;18313;48.518;9.124;2023-01-13T09:28:02;9.90;99.90
31735;DHT22;18313;48.518;9.124;2023-01-13T09:30:30;9.90;99.90
31735;DHT22;18313;48.518;9.124;2023-01-13T09:32:58;9.90;99.90
31735;DHT22;18313;48.518;9.124;2023-01-13T09:35:44;9.90;99.90
31735;DHT22;18313;48.518;9.124;2023-01-13T09:38:11;9.90;99.90
31735;DHT22;18313;48.518;9.124;2023-01-13T09:40:39;9.90;99.90
31735;DHT22;18313;48.518;9.124;2023-01-13T09:43:30;9.90;99.90
31735;DHT22;18313;48.518;9.124;2023-01-13T09:46:24;10.00;99.90
31735;DHT22;18313;48.518;9.124;2023-01-13T09:49:16;10.10;99.90
31735;DHT22;18313;48.518;9.124;2023-01-13T09:51:56;10.00;99.90
31735;DHT22;18313;48.518;9.124;2023-01-13T09:54:29;10.00;99.90
31735;DHT22;18313;48.518;9.124;2023-01-13T09:56:58;10.00;99.90
31735;DHT22;18313;48.518;9.124;2023-01-13T09:59:31;10.10;99.90
31735;DHT22;18313;48.518;9.124;2023-01-13T10:07:33;10.20;99.90
31735;DHT22;18313;48.518;9.124;2023-01-13T10:10:02;10.10;99.90
31735;DHT22;18313;48.518;9.124;2023-01-13T10:12:30;10.00;99.90
31735;DHT22;18313;48.518;9.124;2023-01-13T10:15:19;9.80;99.90
31735;DHT22;18313;48.518;9.124;2023-01-13T10:17:53;9.60;99.90
31735;DHT22;18313;48.518;9.124;2023-01-13T10:20:28;9.50;99.90
31735;DHT22;18313;48.518;9.124;2023-01-13T10:25:57;9.40;99.90
31735;DHT22;18313;48.518;9.124;2023-01-13T10:28:27;9.30;99.90
31735;DHT22;18313;48.518;9.124;2023-01-13T10:30:54;9.40;99.90
31735;DHT22;18313;48.518;9.124;2023-01-13T10:33:25;9.30;99.90
31735;DHT22;18313;48.518;9.124;2023-01-13T10:38:47;9.40;99.90
31735;DHT22;18313;48.518;9.124;2023-01-13T10:44:15;9.50;99.90
31735;DHT22;18313;48.518;9.124;2023-01-13T10:46:54;9.70;99.90
31735;DHT22;18313;48.518;9.124;2023-01-13T10:49:29;10.00;99.90
31735;DHT22;18313;48.518;9.124;2023-01-13T10:51:59;10.20;99.90
31735;DHT22;18313;48.518;9.124;2023-01-13T10:54:28;10.30;99.90
31735;DHT22;18313;48.518;9.124;2023-01-13T10:57:14;10.50;99.90
31735;DHT22;18313;48.518;9.124;2023-01-13T10:59:44;10.50;99.90
31735;DHT22;18313;48.518;9.124;2023-01-13T11:02:27;10.50;99.90
31735;DHT22;18313;48.518;9.124;2023-01-13T11:07:30;10.50;99.90
31735;DHT22;18313;48.518;9.124;2023-01-13T11:13:02;10.50;99.90
31735;DHT22;18313;48.518;9.124;2023-01-13T11:15:54;10.10;99.90
31735;DHT22;18313;48.518;9.124;2023-01-13T11:18:30;9.40;99.90
31735;DHT22;18313;48.518;9.124;2023-01-13T11:21:05;8.80;99.90
31735;DHT22;18313;48.518;9.124;2023-01-13T11:23:38;8.40;99.90
31735;DHT22;18313;48.518;9.124;2023-01-13T11:26:20;8.10;99.90
31735;DHT22;18313;48.518;9.124;2023-01-13T11:29:26;7.70;99.90
31735;DHT22;18313;48.518;9.124;2023-01-13T11:32:05;7.60;99.90
31735;DHT22;18313;48.518;9.124;2023-01-13T11:34:38;7.50;99.90
31735;DHT22;18313;48.518;9.124;2023-01-13T11:37:25;7.40;99.90
31735;DHT22;18313;48.518;9.124;2023-01-13T11:40:17;7.50;99.90
31735;DHT22;18313;48.518;9.124;2023-01-13T11:43:00;7.50;99.90
31735;DHT22;18313;48.518;9.124;2023-01-13T11:45:36;7.40;99.90
31735;DHT22;18313;48.518;9.124;2023-01-13T11:48:17;7.40;99.90
31735;DHT22;18313;48.518;9.124;2023-01-13T12:08:11;6.90;99.90
31735;DHT22;18313;48.518;9.124;2023-01-13T12:13:58;7.00;99.90
31735;DHT22;18313;48.518;9.124;2023-01-13T12:16:29;7.00;99.90
31735;DHT22;18313;48.518;9.124;2023-01-13T12:19:25;7.10;99.90
31735;DHT22;18313;48.518;9.124;2023-01-13T12:22:02;7.20;99.90
31735;DHT22;18313;48.518;9.124;2023-01-13T12:24:30;7.20;99.90
31735;DHT22;18313;48.518;9.124;2023-01-13T12:27:09;7.20;99.90
31735;DHT22;18313;48.518;9.124;2023-01-13T12:29:38;7.20;99.90
31735;DHT22;18313;48.518;9.124;2023-01-13T12:32:10;7.30;99.90
31735;DHT22;18313;48.518;9.124;2023-01-13T12:35:01;7.30;99.90
31735;DHT22;18313;48.518;9.124;2023-01-13T12:37:36;7.30;99.90
31735;DHT22;18313;48.518;9.124;2023-01-13T12:43:22;7.30;99.90
31735;DHT22;18313;48.518;9.124;2023-01-13T12:48:58;7.30;99.90
31735;DHT22;18313;48.518;9.124;2023-01-13T12:51:32;7.20;99.90
31735;DHT22;18313;48.518;9.124;2023-01-13T12:54:27;7.30;99.90
31735;DHT22;18313;48.518;9.124;2023-01-13T12:56:52;7.20;99.90
31735;DHT22;18313;48.518;9.124;2023-01-13T13:07:13;7.20;99.90
31735;DHT22;18313;48.518;9.124;2023-01-13T13:10:41;7.30;99.90
31735;DHT22;18313;48.518;9.124;2023-01-13T13:13:05;7.40;99.90
31735;DHT22;18313;48.518;9.124;2023-01-13T13:15:47;7.50;99.90
31735;DHT22;18313;48.518;9.124;2023-01-13T13:21:03;7.80;99.90
31735;DHT22;18313;48.518;9.124;2023-01-13T13:23:42;8.00;99.90
31735;DHT22;18313;48.518;9.124;2023-01-13T13:26:37;8.10;99.90
31735;DHT22;18313;48.518;9.124;2023-01-13T13:29:27;8.30;99.90
31735;DHT22;18313;48.518;9.124;2023-01-13T13:39:35;8.80;99.90
31735;DHT22;18313;48.518;9.124;2023-01-13T13:42:40;8.80;99.90
31735;DHT22;18313;48.518;9.124;2023-01-13T13:45:28;8.80;99.90
31735;DHT22;18313;48.518;9.124;2023-01-13T13:48:25;8.80;99.90
31735;DHT22;18313;48.518;9.124;2023-01-13T13:50:54;8.60;99.90
31735;DHT22;18313;48.518;9.124;2023-01-13T13:53:29;8.60;99.90
31735;DHT22;18313;48.518;9.124;2023-01-13T13:56:00;8.70;99.90
31735;DHT22;18313;48.518;9.124;2023-01-13T13:58:30;8.70;99.90
31735;DHT22;18313;48.518;9.124;2023-01-13T14:00:58;8.80;99.90
31735;DHT22;18313;48.518;9.124;2023-01-13T14:03:31;8.90;99.90
31735;DHT22;18313;48.518;9.124;2023-01-13T14:06:03;9.00;99.90
31735;DHT22;18313;48.518;9.124;2023-01-13T14:08:36;9.10;99.90
31735;DHT22;18313;48.518;9.124;2023-01-13T14:11:33;9.00;99.90
31735;DHT22;18313;48.518;9.124;2023-01-13T14:14:03;9.00;99.90
31735;DHT22;18313;48.518;9.124;2023-01-13T14:16:32;9.10;99.90
31735;DHT22;18313;48.518;9.124;2023-01-13T14:19:02;9.10;99.90
31735;DHT22;18313;48.518;9.124;2023-01-13T14:21:29;9.10;99.90
31735;DHT22;18313;48.518;9.124;2023-01-13T14:24:02;9.20;99.90
31735;DHT22;18313;48.518;9.124;2023-01-13T14:26:37;9.30;99.90
31735;DHT22;18313;48.518;9.124;2023-01-13T14:29:04;9.40;99.90
31735;DHT22;18313;48.518;9.124;2023-01-13T14:31:33;9.40;99.90
31735;DHT22;18313;48.518;9.124;2023-01-13T14:34:02;9.40;99.90
31735;DHT22;18313;48.518;9.124;2023-01-13T14:36:50;9.50;99.90
31735;DHT22;18313;48.518;9.124;2023-01-13T14:41:45;9.50;99.90
31735;DHT22;18313;48.518;9.124;2023-01-13T14:46:52;9.50;99.90
31735;DHT22;18313;48.518;9.124;2023-01-13T14:49:40;9.50;99.90
31735;DHT22;18313;48.518;9.124;2023-01-13T14:52:20;9.30;99.90
31735;DHT22;18313;48.518;9.124;2023-01-13T14:57:29;9.30;99.90
31735;DHT22;18313;48.518;9.124;2023-01-13T15:02:42;9.30;99.90
31735;DHT22;18313;48.518;9.124;2023-01-13T15:10:26;9.30;99.90
31735;DHT22;18313;48.518;9.124;2023-01-13T15:12:57;9.20;99.90
31735;DHT22;18313;48.518;9.124;2023-01-13T15:17:56;9.10;99.90
31735;DHT22;18313;48.518;9.124;2023-01-13T15:20:24;9.10;99.90
31735;DHT22;18313;48.518;9.124;2023-01-13T15:22:51;9.00;99.90
31735;DHT22;18313;48.518;9.124;2023-01-13T15:25:19;8.90;99.90
31735;DHT22;18313;48.518;9.124;2023-01-13T15:27:47;8.90;99.90
31735;DHT22;18313;48.518;9.124;2023-01-13T15:32:46;8.70;99.90
31735;DHT22;18313;48.518;9.124;2023-01-13T15:35:15;8.60;99.90
31735;DHT22;18313;48.518;9.124;2023-01-13T15:37:43;8.60;99.90
31735;DHT22;18313;48.518;9.124;2023-01-13T15:40:20;8.50;99.90
31735;DHT22;18313;48.518;9.124;2023-01-13T15:42:47;8.30;99.90
31735;DHT22;18313;48.518;9.124;2023-01-13T15:45:35;8.30;99.90
31735;DHT22;18313;48.518;9.124;2023-01-13T15:48:23;8.20;99.90
31735;DHT22;18313;48.518;9.124;2023-01-13T15:50:50;8.20;99.90
31735;DHT22;18313;48.518;9.124;2023-01-13T15:53:18;8.10;99.90
31735;DHT22;18313;48.518;9.124;2023-01-13T15:55:49;8.00;99.90
31735;DHT22;18313;48.518;9.124;2023-01-13T15:58:20;7.90;99.90
31735;DHT22;18313;48.518;9.124;2023-01-13T16:00:49;7.90;99.90
31735;DHT22;18313;48.518;9.124;2023-01-13T16:03:16;7.90;99.90
31735;DHT22;18313;48.518;9.124;2023-01-13T16:05:44;7.80;99.90
31735;DHT22;18313;48.518;9.124;2023-01-13T16:08:18;7.70;99.90
31735;DHT22;18313;48.518;9.124;2023-01-13T16:10:46;7.70;99.90
31735;DHT22;18313;48.518;9.124;2023-01-13T16:13:15;7.70;99.90
31735;DHT22;18313;48.518;9.124;2023-01-13T16:15:46;7.70;99.90
31735;DHT22;18313;48.518;9.124;2023-01-13T16:18:20;7.60;99.90
31735;DHT22;18313;48.518;9.124;2023-01-13T16:20:47;7.50;99.90
31735;DHT22;18313;48.518;9.124;2023-01-13T16:23:18;7.50;99.90
31735;DHT22;18313;48.518;9.124;2023-01-13T16:25:46;7.40;99.90
31735;DHT22;18313;48.518;9.124;2023-01-13T16:28:24;7.40;99.90
31735;DHT22;18313;48.518;9.124;2023-01-13T16:30:54;7.40;99.90
31735;DHT22;18313;48.518;9.124;2023-01-13T16:33:21;7.40;99.90
31735;DHT22;18313;48.518;9.124;2023-01-13T16:35:48;7.40;99.90
31735;DHT22;18313;48.518;9.124;2023-01-13T16:38:35;7.30;99.90
31735;DHT22;18313;48.518;9.124;2023-01-13T16:41:02;7.40;99.90
31735;DHT22;18313;48.518;9.124;2023-01-13T16:43:30;7.40;99.90
31735;DHT22;18313;48.518;9.124;2023-01-13T16:45:58;7.30;99.90
31735;DHT22;18313;48.518;9.124;2023-01-13T16:48:26;7.30;99.90
31735;DHT22;18313;48.518;9.124;2023-01-13T16:50:53;7.20;99.90
31735;DHT22;18313;48.518;9.124;2023-01-13T16:53:21;7.20;99.90
31735;DHT22;18313;48.518;9.124;2023-01-13T16:55:49;7.20;99.90
31735;DHT22;18313;48.518;9.124;2023-01-13T16:58:18;7.10;99.90
31735;DHT22;18313;48.518;9.124;2023-01-13T17:00:46;7.10;99.90
31735;DHT22;18313;48.518;9.124;2023-01-13T17:03:15;7.10;99.90
31735;DHT22;18313;48.518;9.124;2023-01-13T17:05:44;7.20;99.90
31735;DHT22;18313;48.518;9.124;2023-01-13T17:08:16;7.20;99.90
31735;DHT22;18313;48.518;9.124;2023-01-13T17:10:45;7.20;99.90
31735;DHT22;18313;48.518;9.124;2023-01-13T17:13:12;7.20;99.90
31735;DHT22;18313;48.518;9.124;2023-01-13T17:15:44;7.20;99.90
31735;DHT22;18313;48.518;9.124;2023-01-13T17:18:11;7.20;99.90
31735;DHT22;18313;48.518;9.124;2023-01-13T17:20:39;7.20;99.90
31735;DHT22;18313;48.518;9.124;2023-01-13T17:23:06;7.30;99.90
31735;DHT22;18313;48.518;9.124;2023-01-13T17:25:34;7.30;99.90
31735;DHT22;18313;48.518;9.124;2023-01-13T17:28:01;7.40;99.90
31735;DHT22;18313;48.518;9.124;2023-01-13T17:30:28;7.40;99.90
31735;DHT22;18313;48.518;9.124;2023-01-13T17:32:56;7.30;99.90
31735;DHT22;18313;48.518;9.124;2023-01-13T17:35:23;7.20;99.90
31735;DHT22;18313;48.518;9.124;2023-01-13T17:37:52;7.10;99.90
31735;DHT22;18313;48.518;9.124;2023-01-13T17:40:19;7.00;99.90
31735;DHT22;18313;48.518;9.124;2023-01-13T17:42:46;6.90;99.90
31735;DHT22;18313;48.518;9.124;2023-01-13T17:45:14;6.80;99.90
31735;DHT22;18313;48.518;9.124;2023-01-13T17:47:42;6.70;99.90
31735;DHT22;18313;48.518;9.124;2023-01-13T17:50:09;6.60;99.90
31735;DHT22;18313;48.518;9.124;2023-01-13T17:52:36;6.50;99.90
31735;DHT22;18313;48.518;9.124;2023-01-13T17:55:04;6.50;99.90
31735;DHT22;18313;48.518;9.124;2023-01-13T17:57:33;6.40;99.90
31735;DHT22;18313;48.518;9.124;2023-01-13T18:00:00;6.40;99.90
31735;DHT22;18313;48.518;9.124;2023-01-13T18:02:27;6.40;99.90
31735;DHT22;18313;48.518;9.124;2023-01-13T18:04:56;6.30;99.90
31735;DHT22;18313;48.518;9.124;2023-01-13T18:07:23;6.30;99.90
31735;DHT22;18313;48.518;9.124;2023-01-13T18:09:50;6.30;99.90
31735;DHT22;18313;48.518;9.124;2023-01-13T18:12:17;6.20;99.90
31735;DHT22;18313;48.518;9.124;2023-01-13T18:14:45;6.20;99.90
31735;DHT22;18313;48.518;9.124;2023-01-13T18:17:12;6.10;99.90